Time;durP1;ratioP1;P1;durP2;ratioP2;P2;SDS_P1;SDS_P2;PMS_P1;PMS_P2;Temp;Humidity;BMP_temperature;BMP_pressure;BME280_temperature;BME280_humidity;BME280_pressure;Samples;Min_cycle;Max_cycle;Signal;HPM_P1;HPM_P2
2022/11/15 00:02:17;;;;;;;37.50;28.03;;;5.20;99.90;;;;;;4986271;28;20522;-52
2022/11/15 00:04:44;;;;;;;35.57;26.27;;;5.20;99.90;;;;;;4986678;28;20538;-51
2022/11/15 00:07:10;;;;;;;40.03;27.13;;;5.10;99.90;;;;;;4989695;28;20551;-51
2022/11/15 00:09:37;;;;;;;37.00;26.80;;;5.20;99.90;;;;;;4989606;28;20468;-52
2022/11/15 00:12:05;;;;;;;38.43;26.60;;;5.10;99.90;;;;;;4987309;28;20461;-52
2022/11/15 00:14:32;;;;;;;37.57;26.00;;;5.10;99.90;;;;;;4986032;28;20566;-52
2022/11/15 00:16:58;;;;;;;38.00;27.67;;;5.10;99.90;;;;;;4989029;28;20492;-52
2022/11/15 00:19:25;;;;;;;40.67;27.67;;;5.10;99.90;;;;;;4987900;28;20937;-51
2022/11/15 00:21:52;;;;;;;37.20;27.30;;;5.10;99.90;;;;;;4988215;28;20514;-53
2022/11/15 00:24:18;;;;;;;35.43;27.67;;;5.10;99.90;;;;;;4988888;28;20465;-52
2022/11/15 00:26:45;;;;;;;36.47;26.80;;;5.10;99.90;;;;;;4987122;28;20492;-53
2022/11/15 00:29:13;;;;;;;39.73;27.70;;;5.10;99.90;;;;;;4985683;28;20461;-51
2022/11/15 00:31:39;;;;;;;35.87;26.80;;;5.00;99.90;;;;;;4986197;28;20464;-52
2022/11/15 00:34:06;;;;;;;41.10;28.60;;;5.00;99.90;;;;;;4987309;28;20469;-53
2022/11/15 00:36:33;;;;;;;34.93;26.87;;;5.00;99.90;;;;;;4987634;28;20476;-52
2022/11/15 00:39:00;;;;;;;37.33;26.43;;;5.00;99.90;;;;;;4987658;28;20514;-52
2022/11/15 00:41:27;;;;;;;36.80;28.00;;;5.00;99.90;;;;;;4986790;28;22939;-52
2022/11/15 00:43:53;;;;;;;38.87;27.73;;;5.00;99.90;;;;;;4989486;28;20457;-51
2022/11/15 00:46:21;;;;;;;33.80;25.83;;;5.00;99.90;;;;;;4988096;28;20526;-51
2022/11/15 00:48:48;;;;;;;35.27;25.97;;;5.00;99.90;;;;;;4988524;28;20519;-53
2022/11/15 00:51:14;;;;;;;37.23;26.80;;;5.00;99.90;;;;;;4987600;28;20465;-52
2022/11/15 00:53:41;;;;;;;38.70;28.90;;;5.00;99.90;;;;;;4986579;28;20464;-53
2022/11/15 00:56:08;;;;;;;35.77;26.07;;;5.00;99.90;;;;;;4988032;28;20488;-51
2022/11/15 00:58:34;;;;;;;39.60;28.40;;;5.00;99.90;;;;;;4989925;28;20469;-52
2022/11/15 01:01:09;;;;;;;37.03;26.93;;;5.00;99.90;;;;;;4985633;28;20464;-52
2022/11/15 01:03:38;;;;;;;37.57;28.23;;;4.90;99.90;;;;;;4985066;28;20461;-52
2022/11/15 01:06:05;;;;;;;34.33;26.50;;;4.90;99.90;;;;;;4981589;28;20476;-52
2022/11/15 01:08:31;;;;;;;42.73;28.47;;;4.80;99.90;;;;;;4986265;28;20491;-52
2022/11/15 01:11:02;;;;;;;39.50;27.80;;;4.80;99.90;;;;;;4986625;28;20648;-52
2022/11/15 01:13:31;;;;;;;33.33;26.93;;;4.80;99.90;;;;;;4988511;28;20523;-52
2022/11/15 01:15:57;;;;;;;37.40;27.77;;;4.70;99.90;;;;;;4986154;28;20492;-52
2022/11/15 01:18:24;;;;;;;37.30;27.63;;;4.70;99.90;;;;;;4988939;28;20460;-52
2022/11/15 01:20:52;;;;;;;39.67;27.30;;;4.70;99.90;;;;;;4986741;28;20465;-52
2022/11/15 01:23:19;;;;;;;39.20;28.30;;;4.70;99.90;;;;;;4988946;28;20469;-52
2022/11/15 01:25:45;;;;;;;38.67;28.30;;;4.70;99.90;;;;;;4985680;28;20491;-51
2022/11/15 01:28:12;;;;;;;39.63;28.80;;;4.70;99.90;;;;;;4989332;28;21037;-52
2022/11/15 01:30:38;;;;;;;36.17;26.70;;;4.60;99.90;;;;;;4983616;28;20493;-52
2022/11/15 01:33:05;;;;;;;38.90;28.23;;;4.70;99.90;;;;;;4988879;28;20526;-52
2022/11/15 01:35:32;;;;;;;43.67;29.37;;;4.70;99.90;;;;;;4988921;28;21044;-51
2022/11/15 01:38:00;;;;;;;37.10;27.93;;;4.60;99.90;;;;;;4992123;28;20535;-51
2022/11/15 01:40:27;;;;;;;42.80;28.40;;;4.50;99.90;;;;;;4988051;28;20976;-52
2022/11/15 01:42:53;;;;;;;37.03;26.80;;;4.60;99.90;;;;;;4991266;28;20511;-53
2022/11/15 01:45:20;;;;;;;38.27;28.50;;;4.60;99.90;;;;;;4990581;28;20468;-52
2022/11/15 01:47:49;;;;;;;36.60;26.57;;;4.50;99.90;;;;;;4993720;28;20495;-52
2022/11/15 01:50:19;;;;;;;38.63;27.97;;;4.60;99.90;;;;;;4992863;28;20472;-52
2022/11/15 01:52:47;;;;;;;44.43;28.03;;;4.50;99.90;;;;;;4988688;28;21528;-53
2022/11/15 01:55:19;;;;;;;34.90;26.43;;;4.60;99.90;;;;;;4990264;28;21466;-52
2022/11/15 01:57:48;;;;;;;37.77;28.23;;;4.60;99.90;;;;;;4990476;28;20554;-51
2022/11/15 02:00:16;;;;;;;43.40;28.00;;;4.60;99.90;;;;;;4988958;28;20472;-51
2022/11/15 02:02:43;;;;;;;37.30;27.80;;;4.50;99.90;;;;;;4990946;28;20988;-52
2022/11/15 02:05:10;;;;;;;39.00;28.83;;;4.50;99.90;;;;;;4988383;28;20461;-51
2022/11/15 02:07:37;;;;;;;46.33;31.67;;;4.50;99.90;;;;;;4990912;28;20911;-51
2022/11/15 02:10:08;;;;;;;37.50;28.30;;;4.60;99.90;;;;;;4990739;28;20514;-51
2022/11/15 02:12:36;;;;;;;37.03;27.17;;;4.60;99.90;;;;;;4991827;28;20464;-51
2022/11/15 02:15:05;;;;;;;36.37;27.60;;;4.50;99.90;;;;;;4990279;28;20515;-52
2022/11/15 02:17:56;;;;;;;33.70;26.50;;;4.50;99.90;;;;;;4991818;28;20535;-52
2022/11/15 02:20:35;;;;;;;37.77;26.67;;;4.50;99.90;;;;;;4990060;28;20515;-51
2022/11/15 02:23:15;;;;;;;38.83;27.80;;;4.50;99.90;;;;;;4988535;28;20468;-52
2022/11/15 02:25:55;;;;;;;38.40;29.33;;;4.50;99.90;;;;;;4986652;28;20986;-53
2022/11/15 02:28:41;;;;;;;40.03;29.20;;;4.50;99.90;;;;;;4990020;28;20538;-53
2022/11/15 02:31:13;;;;;;;38.37;28.47;;;4.60;99.90;;;;;;4984372;28;20461;-51
2022/11/15 02:33:48;;;;;;;37.07;28.77;;;4.50;99.90;;;;;;4989120;28;20473;-52
2022/11/15 02:36:19;;;;;;;36.90;27.60;;;4.50;99.90;;;;;;4986421;28;20480;-52
2022/11/15 02:38:55;;;;;;;37.50;28.00;;;4.50;99.90;;;;;;4986268;28;20542;-51
2022/11/15 02:41:28;;;;;;;36.47;27.70;;;4.50;99.90;;;;;;4987183;28;20460;-51
2022/11/15 02:43:59;;;;;;;34.67;26.30;;;4.40;99.90;;;;;;4985101;28;20465;-51
2022/11/15 02:49:18;;;;;;;36.70;27.87;;;4.40;99.90;;;;;;4988481;28;20456;-51
2022/11/15 02:51:47;;;;;;;38.10;27.40;;;4.40;99.90;;;;;;4987880;28;20568;-53
2022/11/15 02:54:18;;;;;;;36.83;28.10;;;4.40;99.90;;;;;;4987966;28;20457;-52
2022/11/15 02:56:47;;;;;;;35.30;26.50;;;4.40;99.90;;;;;;4988114;28;20559;-51
2022/11/15 02:59:35;;;;;;;38.57;28.70;;;4.30;99.90;;;;;;4991110;28;20460;-51
2022/11/15 03:02:19;;;;;;;37.20;27.97;;;4.30;99.90;;;;;;4988280;28;20496;-51
2022/11/15 03:04:54;;;;;;;37.97;27.77;;;4.30;99.90;;;;;;4989265;28;20472;-51
2022/11/15 03:07:29;;;;;;;37.13;28.57;;;4.30;99.90;;;;;;4987687;28;20479;-52
2022/11/15 03:10:03;;;;;;;36.90;27.40;;;4.20;99.90;;;;;;4989979;28;20468;-52
2022/11/15 03:12:35;;;;;;;40.17;27.07;;;4.20;99.90;;;;;;4986276;28;20551;-52
2022/11/15 03:15:08;;;;;;;39.93;28.97;;;4.30;99.90;;;;;;4991712;28;20515;-51
2022/11/15 03:17:41;;;;;;;32.10;25.90;;;4.20;99.90;;;;;;4990233;28;20484;-52
2022/11/15 03:20:11;;;;;;;40.67;27.20;;;4.30;99.90;;;;;;4985963;28;20527;-52
2022/11/15 03:22:41;;;;;;;34.50;27.07;;;4.20;99.90;;;;;;4986289;28;20465;-53
2022/11/15 03:25:12;;;;;;;41.37;28.50;;;4.30;99.90;;;;;;4988015;28;20514;-53
2022/11/15 03:27:41;;;;;;;37.00;27.17;;;4.30;99.90;;;;;;4984283;28;20907;-52
2022/11/15 03:30:10;;;;;;;33.87;25.97;;;4.30;99.90;;;;;;4989024;28;21073;-53
2022/11/15 03:32:42;;;;;;;37.00;27.20;;;4.30;99.90;;;;;;4987129;28;20520;-52
2022/11/15 03:35:12;;;;;;;39.40;26.97;;;4.30;99.90;;;;;;4987565;28;20465;-52
2022/11/15 03:38:00;;;;;;;33.50;26.13;;;4.20;99.90;;;;;;4987312;28;20477;-52
2022/11/15 03:40:34;;;;;;;38.17;27.83;;;4.30;99.90;;;;;;4989016;28;20874;-52
2022/11/15 03:43:07;;;;;;;38.33;26.70;;;4.30;99.90;;;;;;4987081;28;20464;-52
2022/11/15 03:45:41;;;;;;;37.10;27.87;;;4.40;99.90;;;;;;4985924;28;20523;-52
2022/11/15 03:48:15;;;;;;;39.00;28.10;;;4.30;99.90;;;;;;4988086;28;20481;-52
2022/11/15 03:50:43;;;;;;;36.67;26.60;;;4.30;99.90;;;;;;4985851;28;20465;-51
2022/11/15 03:53:10;;;;;;;37.13;28.57;;;4.30;99.90;;;;;;4989034;28;20511;-52
2022/11/15 03:55:37;;;;;;;35.60;26.20;;;4.30;99.90;;;;;;4990384;28;20511;-51
2022/11/15 03:58:04;;;;;;;36.27;27.20;;;4.20;99.90;;;;;;4986468;28;20456;-52
2022/11/15 04:00:30;;;;;;;32.00;25.30;;;4.30;99.90;;;;;;4986464;28;20496;-52
2022/11/15 04:02:57;;;;;;;36.27;26.27;;;4.20;99.90;;;;;;4985978;28;20460;-52
2022/11/15 04:05:25;;;;;;;36.07;26.73;;;4.30;99.90;;;;;;4989024;28;20468;-52
2022/11/15 04:07:52;;;;;;;38.47;26.20;;;4.30;99.90;;;;;;4986349;28;20485;-52
2022/11/15 04:10:19;;;;;;;37.37;25.53;;;4.30;99.90;;;;;;4987910;28;20468;-52
2022/11/15 04:12:47;;;;;;;36.87;27.13;;;4.30;99.90;;;;;;4987798;28;20507;-52
2022/11/15 04:15:16;;;;;;;36.57;27.90;;;4.30;99.90;;;;;;4988248;28;20587;-52
2022/11/15 04:17:44;;;;;;;33.03;25.17;;;4.40;99.90;;;;;;4986568;28;21040;-52
2022/11/15 04:25:46;;;;;;;36.00;26.73;;;4.40;99.90;;;;;;4987569;28;21316;-52
2022/11/15 04:28:13;;;;;;;38.80;26.87;;;4.30;99.90;;;;;;4981973;28;20611;-52
2022/11/15 04:30:40;;;;;;;29.77;24.97;;;4.30;99.90;;;;;;4989546;28;20460;-52
2022/11/15 04:33:06;;;;;;;35.60;26.77;;;4.30;99.90;;;;;;4987485;28;20464;-51
2022/11/15 04:35:33;;;;;;;37.30;26.20;;;4.20;99.90;;;;;;4985390;28;20489;-52
2022/11/15 04:38:02;;;;;;;34.60;24.77;;;4.20;99.90;;;;;;4985571;28;20492;-52
2022/11/15 04:40:28;;;;;;;35.57;24.03;;;4.20;99.90;;;;;;4988466;28;20528;-52
2022/11/15 04:42:55;;;;;;;39.77;26.30;;;4.10;99.90;;;;;;4987055;28;20468;-51
2022/11/15 04:45:22;;;;;;;35.07;25.93;;;4.10;99.90;;;;;;4987577;28;20461;-52
2022/11/15 04:47:49;;;;;;;32.97;25.17;;;4.00;99.90;;;;;;4986079;28;20566;-51
2022/11/15 04:50:16;;;;;;;32.73;25.83;;;4.00;99.90;;;;;;4988055;28;20461;-52
2022/11/15 04:52:44;;;;;;;35.93;25.10;;;4.00;99.90;;;;;;4983945;28;20511;-52
2022/11/15 04:55:12;;;;;;;31.83;25.00;;;3.90;99.90;;;;;;4988823;28;20518;-53
2022/11/15 04:57:39;;;;;;;32.20;24.93;;;3.90;99.90;;;;;;4985916;28;21438;-53
2022/11/15 05:00:08;;;;;;;32.77;25.30;;;3.90;99.90;;;;;;4987060;28;20457;-52
2022/11/15 05:05:19;;;;;;;33.67;24.40;;;3.90;99.90;;;;;;4985375;28;20560;-51
2022/11/15 05:07:45;;;;;;;36.37;26.43;;;3.80;99.90;;;;;;4987512;28;20488;-53
2022/11/15 05:10:13;;;;;;;32.60;26.40;;;3.80;99.90;;;;;;4989942;28;20460;-52
2022/11/15 05:12:40;;;;;;;31.33;24.33;;;3.70;99.90;;;;;;4989336;28;20865;-53
2022/11/15 05:15:08;;;;;;;29.57;23.77;;;3.80;99.90;;;;;;4985830;28;20520;-52
2022/11/15 05:17:34;;;;;;;33.57;25.20;;;3.80;99.90;;;;;;4990950;28;20558;-52
2022/11/15 05:20:01;;;;;;;31.70;24.83;;;3.70;99.90;;;;;;4991284;28;20457;-52
2022/11/15 05:22:28;;;;;;;34.83;25.63;;;3.70;99.90;;;;;;4990250;28;20518;-51
2022/11/15 05:24:55;;;;;;;28.93;22.37;;;3.70;99.90;;;;;;4990188;28;20523;-53
2022/11/15 05:27:23;;;;;;;27.90;23.40;;;3.70;99.90;;;;;;4991285;28;20570;-51
2022/11/15 05:29:49;;;;;;;34.20;26.57;;;3.70;99.90;;;;;;4988881;28;21083;-51
2022/11/15 05:32:17;;;;;;;30.00;24.43;;;3.70;99.90;;;;;;4992226;28;20522;-53
2022/11/15 05:34:44;;;;;;;38.50;26.83;;;3.80;99.90;;;;;;4990089;28;20519;-51
2022/11/15 05:37:11;;;;;;;37.37;26.03;;;4.00;99.90;;;;;;4989918;28;20543;-52
2022/11/15 05:39:37;;;;;;;37.43;27.90;;;4.00;99.90;;;;;;4988955;28;20890;-51
2022/11/15 05:42:07;;;;;;;31.97;24.57;;;4.00;99.90;;;;;;4990894;28;20464;-51
2022/11/15 05:44:37;;;;;;;31.90;25.47;;;4.00;99.90;;;;;;4987617;28;20535;-53
2022/11/15 05:47:06;;;;;;;33.60;25.57;;;4.00;99.90;;;;;;4991231;28;20488;-52
2022/11/15 05:49:35;;;;;;;60.13;41.37;;;4.00;99.90;;;;;;4990605;28;20859;-52
2022/11/15 05:52:05;;;;;;;67.60;44.57;;;4.00;99.90;;;;;;4991797;28;20826;-52
2022/11/15 05:54:32;;;;;;;113.23;64.13;;;4.00;99.90;;;;;;4989883;28;20543;-52
2022/11/15 05:56:59;;;;;;;38.93;27.60;;;3.90;99.90;;;;;;4990556;28;20492;-52
2022/11/15 05:59:26;;;;;;;34.33;25.53;;;3.90;99.90;;;;;;4989542;28;20491;-52
2022/11/15 06:01:54;;;;;;;46.40;33.93;;;4.00;99.90;;;;;;4991142;28;20461;-52
2022/11/15 06:04:21;;;;;;;89.60;40.77;;;4.00;99.90;;;;;;4990442;28;21012;-52
2022/11/15 06:06:47;;;;;;;46.63;27.87;;;3.90;99.90;;;;;;4992154;28;20483;-52
2022/11/15 06:09:14;;;;;;;48.67;30.77;;;4.00;99.90;;;;;;4991537;28;20487;-52
2022/11/15 06:11:40;;;;;;;36.33;26.60;;;3.90;99.90;;;;;;4991954;28;20978;-53
2022/11/15 06:14:07;;;;;;;39.17;27.40;;;3.90;99.90;;;;;;4992386;28;20964;-52
2022/11/15 06:16:34;;;;;;;41.53;27.27;;;3.90;99.90;;;;;;4990154;28;20480;-52
2022/11/15 06:19:02;;;;;;;39.73;27.03;;;3.90;99.90;;;;;;4990784;28;20511;-53
2022/11/15 06:21:29;;;;;;;35.00;23.83;;;3.90;99.90;;;;;;4987147;28;20464;-52
2022/11/15 06:23:55;;;;;;;36.10;25.10;;;3.90;99.90;;;;;;4986590;28;20461;-51
2022/11/15 06:26:22;;;;;;;39.73;26.00;;;3.90;99.90;;;;;;4989619;28;21006;-51
2022/11/15 06:28:48;;;;;;;37.13;26.10;;;3.80;99.90;;;;;;4989986;28;21303;-52
2022/11/15 06:31:15;;;;;;;38.93;24.97;;;3.80;99.90;;;;;;4988367;28;20491;-52
2022/11/15 06:33:42;;;;;;;31.53;25.03;;;3.70;99.90;;;;;;4989850;28;20551;-52
2022/11/15 06:36:15;;;;;;;34.17;25.07;;;3.70;99.90;;;;;;4985820;28;20543;-51
2022/11/15 06:38:41;;;;;;;34.53;25.57;;;3.70;99.90;;;;;;4987219;28;20460;-52
2022/11/15 06:41:10;;;;;;;39.80;25.97;;;3.80;99.90;;;;;;4989899;28;20511;-51
2022/11/15 06:43:37;;;;;;;54.17;27.03;;;3.70;99.90;;;;;;4989416;28;20523;-52
2022/11/15 06:46:05;;;;;;;48.40;25.63;;;3.80;99.90;;;;;;4986911;28;20497;-52
2022/11/15 06:48:34;;;;;;;47.87;26.63;;;3.80;99.90;;;;;;4989852;28;20535;-50
2022/11/15 06:51:02;;;;;;;45.03;26.63;;;3.80;99.90;;;;;;4990272;28;20476;-51
2022/11/15 06:53:31;;;;;;;38.10;25.53;;;3.90;99.90;;;;;;4986647;28;20839;-52
2022/11/15 06:56:00;;;;;;;33.10;24.87;;;4.00;99.90;;;;;;4988410;28;20495;-51
2022/11/15 06:58:27;;;;;;;39.80;25.83;;;4.10;99.90;;;;;;4989511;28;20484;-51
2022/11/15 07:00:54;;;;;;;44.88;25.35;;;4.20;99.90;;;;;;4986678;28;20460;-51
2022/11/15 07:03:20;;;;;;;37.37;24.23;;;4.20;99.90;;;;;;4986418;28;20209;-52
2022/11/15 07:05:53;;;;;;;42.47;27.53;;;4.20;99.90;;;;;;4985515;28;20479;-50
2022/11/15 07:08:19;;;;;;;41.67;27.97;;;4.30;99.90;;;;;;4987482;28;20466;-51
2022/11/15 07:10:48;;;;;;;38.70;25.77;;;4.30;99.90;;;;;;4988790;28;20845;-51
2022/11/15 07:13:14;;;;;;;40.73;27.20;;;4.40;99.90;;;;;;4989047;28;20468;-52
2022/11/15 07:15:41;;;;;;;42.07;28.37;;;4.50;99.90;;;;;;4990870;28;20523;-52
2022/11/15 07:18:07;;;;;;;45.47;29.80;;;4.50;99.90;;;;;;4989448;28;20876;-52
2022/11/15 07:20:34;;;;;;;32.67;26.03;;;4.60;99.90;;;;;;4986700;28;20483;-52
2022/11/15 07:23:01;;;;;;;34.73;26.27;;;4.70;99.90;;;;;;4988748;28;20876;-52
2022/11/15 07:25:28;;;;;;;45.10;27.67;;;4.80;98.50;;;;;;4988511;28;20461;-54
2022/11/15 07:27:57;;;;;;;34.70;25.67;;;5.10;94.60;;;;;;4984911;28;20884;-53
2022/11/15 07:30:24;;;;;;;42.50;27.63;;;5.30;92.80;;;;;;4984073;28;21006;-52
2022/11/15 07:32:53;;;;;;;33.57;25.77;;;5.30;90.80;;;;;;4972567;28;20520;-52
2022/11/15 07:35:20;;;;;;;40.30;26.07;;;5.30;90.40;;;;;;4988862;28;20545;-52
2022/11/15 07:37:54;;;;;;;33.27;25.70;;;5.30;89.90;;;;;;4985966;28;20546;-51
2022/11/15 07:40:21;;;;;;;33.07;25.63;;;5.30;89.00;;;;;;4985691;28;20455;-52
2022/11/15 07:42:53;;;;;;;39.70;27.40;;;5.50;85.10;;;;;;4987084;28;20828;-52
2022/11/15 07:45:22;;;;;;;33.17;25.73;;;5.80;82.50;;;;;;4984930;28;20618;-52
2022/11/15 07:47:48;;;;;;;40.50;27.80;;;6.00;86.50;;;;;;4985496;28;20514;-52
2022/11/15 07:50:15;;;;;;;43.53;27.63;;;6.00;98.00;;;;;;4987229;28;21040;-52
2022/11/15 07:52:42;;;;;;;40.20;27.80;;;6.10;99.70;;;;;;4984647;28;20461;-52
2022/11/15 07:55:09;;;;;;;41.90;27.17;;;6.20;99.90;;;;;;4989932;28;20519;-52
2022/11/15 07:57:36;;;;;;;37.23;27.73;;;6.20;99.90;;;;;;4982467;28;20902;-52
2022/11/15 08:00:04;;;;;;;40.07;27.03;;;6.30;99.90;;;;;;4984293;28;20519;-53
2022/11/15 08:02:33;;;;;;;35.27;25.70;;;6.20;99.90;;;;;;4988331;28;20879;-52
2022/11/15 08:04:59;;;;;;;35.33;26.93;;;6.40;99.90;;;;;;4987756;28;21047;-52
2022/11/15 08:07:30;;;;;;;33.57;24.63;;;6.70;99.90;;;;;;4987179;28;20491;-51
2022/11/15 08:09:56;;;;;;;38.27;25.67;;;6.90;99.90;;;;;;4986677;28;20514;-52
2022/11/15 08:12:23;;;;;;;33.47;25.17;;;7.00;99.90;;;;;;4987520;28;20461;-52
2022/11/15 08:14:50;;;;;;;34.00;26.07;;;7.30;99.90;;;;;;4990105;28;20453;-51
2022/11/15 08:17:16;;;;;;;34.67;24.50;;;7.50;99.90;;;;;;4986125;28;20484;-53
2022/11/15 08:19:44;;;;;;;29.03;23.43;;;8.00;99.90;;;;;;4980469;28;20931;-51
2022/11/15 08:22:11;;;;;;;31.33;24.87;;;8.20;99.90;;;;;;4983898;28;20456;-52
2022/11/15 08:24:37;;;;;;;40.27;24.43;;;8.40;22.90;;;;;;4987187;28;21450;-52
2022/11/15 08:27:04;;;;;;;32.67;25.23;;;8.50;28.30;;;;;;4988401;28;20524;-51
2022/11/15 08:29:31;;;;;;;38.20;24.50;;;8.70;53.50;;;;;;4985529;28;21088;-52
2022/11/15 08:31:57;;;;;;;31.70;24.80;;;9.00;47.20;;;;;;4985302;28;20555;-52
2022/11/15 08:34:24;;;;;;;32.70;24.20;;;9.00;74.20;;;;;;4987360;28;20888;-52
2022/11/15 08:36:52;;;;;;;32.10;23.90;;;10.10;99.90;;;;;;4983719;28;20535;-51
2022/11/15 08:39:19;;;;;;;34.10;24.20;;;10.80;99.90;;;;;;4987800;28;20547;-52
2022/11/15 08:41:46;;;;;;;36.13;25.73;;;10.50;99.90;;;;;;4983121;28;20464;-52
2022/11/15 08:44:12;;;;;;;31.53;23.00;;;11.10;99.90;;;;;;4985326;28;20649;-51
2022/11/15 08:46:39;;;;;;;31.20;23.57;;;10.90;99.90;;;;;;4980272;28;20570;-51
2022/11/15 08:49:06;;;;;;;32.00;23.83;;;10.10;99.90;;;;;;4976811;28;20536;-51
2022/11/15 08:51:32;;;;;;;28.47;24.17;;;9.60;95.50;;;;;;4975975;28;20544;-52
2022/11/15 08:54:00;;;;;;;33.67;24.43;;;9.40;66.20;;;;;;4979907;28;20986;-50
2022/11/15 08:56:27;;;;;;;34.13;24.33;;;9.20;64.30;;;;;;4981887;28;20800;-51
2022/11/15 08:58:53;;;;;;;37.60;25.03;;;9.00;49.20;;;;;;4985414;28;20469;-51
2022/11/15 09:01:21;;;;;;;36.97;24.83;;;8.90;42.90;;;;;;4982762;28;20544;-51
2022/11/15 09:03:48;;;;;;;34.93;24.70;;;8.80;33.00;;;;;;4982782;28;20519;-52
2022/11/15 09:06:15;;;;;;;34.83;23.97;;;8.60;26.20;;;;;;4985304;28;20500;-51
2022/11/15 09:08:42;;;;;;;28.17;23.97;;;8.50;99.90;;;;;;4984973;28;20460;-51
2022/11/15 09:11:12;;;;;;;34.73;25.30;;;8.60;99.90;;;;;;4989441;28;20460;-51
2022/11/15 09:13:38;;;;;;;35.43;23.77;;;8.60;99.90;;;;;;4988334;28;20543;-51
2022/11/15 09:16:06;;;;;;;41.73;25.23;;;8.80;99.90;;;;;;4983486;28;20862;-51
2022/11/15 09:18:33;;;;;;;32.00;25.23;;;8.80;99.90;;;;;;4989087;28;20464;-51
2022/11/15 09:21:02;;;;;;;37.90;25.27;;;8.80;99.90;;;;;;4987306;28;20548;-51
2022/11/15 09:23:29;;;;;;;35.23;24.53;;;8.90;99.90;;;;;;4986562;28;20512;-50
2022/11/15 09:26:00;;;;;;;35.77;25.30;;;8.90;99.90;;;;;;4983860;28;20491;-51
2022/11/15 09:28:28;;;;;;;30.00;24.07;;;9.10;91.50;;;;;;4982165;28;20515;-50
2022/11/15 09:30:57;;;;;;;33.77;24.10;;;9.60;29.90;;;;;;4984410;28;20560;-51
2022/11/15 09:33:24;;;;;;;32.87;24.73;;;10.20;64.10;;;;;;4985488;28;20831;-50
2022/11/15 09:35:50;;;;;;;30.57;24.57;;;10.70;89.20;;;;;;4988888;28;20488;-50
2022/11/15 09:38:17;;;;;;;32.13;24.37;;;11.00;99.90;;;;;;4983141;28;20523;-52
2022/11/15 09:40:44;;;;;;;33.17;24.53;;;11.20;99.90;;;;;;4987845;28;20457;-50
2022/11/15 09:43:26;;;;;;;33.70;26.37;;;11.30;99.90;;;;;;4985276;28;20460;-50
2022/11/15 09:46:05;;;;;;;33.43;24.70;;;12.30;1.40;;;;;;4985918;28;20487;-50
2022/11/15 09:48:50;;;;;;;38.17;24.07;;;12.40;99.90;;;;;;4987137;28;20518;-51
2022/11/15 09:51:29;;;;;;;29.00;24.00;;;12.40;99.90;;;;;;4985667;28;20507;-51
2022/11/15 09:54:02;;;;;;;36.90;25.80;;;12.40;99.90;;;;;;4986854;28;20527;-50
2022/11/15 09:56:31;;;;;;;29.50;23.90;;;11.90;99.90;;;;;;4985074;28;20492;-50
2022/11/15 09:59:08;;;;;;;36.03;25.00;;;12.50;99.90;;;;;;4991062;28;20483;-51
2022/11/15 10:01:44;;;;;;;30.40;24.20;;;13.10;99.90;;;;;;4989440;28;20464;-51
2022/11/15 10:04:11;;;;;;;31.10;24.30;;;12.70;99.90;;;;;;4989652;28;20889;-50
2022/11/15 10:06:44;;;;;;;31.47;24.57;;;13.40;99.90;;;;;;4988533;28;20480;-51
2022/11/15 10:09:16;;;;;;;34.13;24.23;;;13.30;99.90;;;;;;4991090;28;20476;-50
2022/11/15 10:11:43;;;;;;;30.80;24.30;;;13.10;99.90;;;;;;4988632;28;20511;-50
2022/11/15 10:14:14;;;;;;;35.10;24.77;;;13.00;99.90;;;;;;4987027;28;20464;-51
2022/11/15 10:17:14;;;;;;;28.23;22.77;;;12.60;99.90;;;;;;4988312;28;20472;-50
2022/11/15 10:19:52;;;;;;;31.27;22.97;;;12.20;99.90;;;;;;4987071;28;20461;-50
2022/11/15 10:22:28;;;;;;;36.57;24.37;;;12.50;99.90;;;;;;4992026;28;20491;-51
2022/11/15 10:25:15;;;;;;;29.63;23.47;;;12.30;99.90;;;;;;4984695;28;21546;-50
2022/11/15 10:27:43;;;;;;;27.27;22.30;;;12.70;99.90;;;;;;4989532;28;20554;-50
2022/11/15 10:30:13;;;;;;;28.77;23.00;;;13.10;99.90;;;;;;4985196;28;20538;-51
2022/11/15 10:32:43;;;;;;;32.60;24.40;;;14.30;99.90;;;;;;4983423;28;20460;-51
2022/11/15 10:35:22;;;;;;;36.40;25.00;;;14.40;99.90;;;;;;4987468;28;20889;-51
2022/11/15 10:37:49;;;;;;;31.30;23.47;;;13.60;99.90;;;;;;4991360;28;20491;-50
2022/11/15 10:40:19;;;;;;;30.07;23.17;;;13.80;99.90;;;;;;4985144;28;20866;-50
2022/11/15 10:42:46;;;;;;;28.13;22.53;;;13.90;99.90;;;;;;4987909;28;20456;-50
2022/11/15 10:45:25;;;;;;;33.90;25.90;;;13.20;99.90;;;;;;4989461;28;20461;-51
2022/11/15 10:47:53;;;;;;;26.83;22.97;;;12.90;99.90;;;;;;4989033;28;21001;-50
2022/11/15 10:50:29;;;;;;;30.17;22.50;;;12.80;99.90;;;;;;4988293;28;20594;-51
2022/11/15 10:52:56;;;;;;;27.70;22.40;;;12.50;99.90;;;;;;4988582;28;20456;-51
2022/11/15 10:55:27;;;;;;;32.80;22.83;;;12.70;99.90;;;;;;4980215;28;20515;-51
2022/11/15 10:57:55;;;;;;;29.20;23.20;;;12.60;99.90;;;;;;4983106;28;21037;-51
2022/11/15 11:00:39;;;;;;;27.60;21.00;;;12.40;99.90;;;;;;4988657;28;20465;-51
2022/11/15 11:03:28;;;;;;;26.60;21.53;;;12.40;99.90;;;;;;4987337;28;20496;-50
2022/11/15 11:06:05;;;;;;;27.17;20.90;;;12.30;99.90;;;;;;4986185;28;20539;-51
2022/11/15 11:08:33;;;;;;;24.97;21.43;;;12.60;99.90;;;;;;4989356;28;21129;-51
2022/11/15 11:11:01;;;;;;;31.63;19.60;;;12.30;99.90;;;;;;4989218;28;20480;-50
2022/11/15 11:13:30;;;;;;;29.87;21.10;;;12.30;99.90;;;;;;4990338;28;20461;-51
2022/11/15 11:16:09;;;;;;;29.40;19.63;;;12.80;99.90;;;;;;4980696;28;20900;-50
2022/11/15 11:18:49;;;;;;;26.03;18.40;;;12.90;99.90;;;;;;4980479;28;20593;-51
2022/11/15 11:21:19;;;;;;;26.10;19.30;;;13.20;99.90;;;;;;4986057;28;20464;-50
2022/11/15 11:23:52;;;;;;;32.20;19.43;;;13.50;99.90;;;;;;4987290;28;21025;-50
2022/11/15 11:26:38;;;;;;;23.23;18.97;;;13.20;99.90;;;;;;4982408;28;20487;-51
2022/11/15 11:29:22;;;;;;;24.43;19.30;;;13.00;99.90;;;;;;4985516;28;20535;-51
2022/11/15 11:31:58;;;;;;;27.73;18.73;;;12.90;99.90;;;;;;4982552;28;21021;-51
2022/11/15 11:34:40;;;;;;;23.70;18.33;;;12.80;99.90;;;;;;4979030;28;20874;-51
2022/11/15 11:37:13;;;;;;;26.00;19.60;;;12.90;99.90;;;;;;4986219;28;21002;-51
2022/11/15 11:39:47;;;;;;;25.33;19.03;;;12.80;99.90;;;;;;4988082;28;20484;-51
2022/11/15 11:42:24;;;;;;;25.63;19.07;;;13.00;99.90;;;;;;4982935;28;21025;-50
2022/11/15 11:44:59;;;;;;;30.57;19.40;;;13.10;99.90;;;;;;4989744;28;20464;-50
2022/11/15 11:47:33;;;;;;;23.13;18.40;;;13.10;99.90;;;;;;4983815;28;20480;-50
2022/11/15 11:50:11;;;;;;;21.37;17.33;;;13.30;99.90;;;;;;4981582;28;20567;-51
2022/11/15 11:52:43;;;;;;;25.53;19.27;;;13.40;99.90;;;;;;4986645;28;20518;-50
2022/11/15 11:55:16;;;;;;;28.87;19.73;;;14.10;99.90;;;;;;4982790;28;20505;-51
2022/11/15 11:57:50;;;;;;;23.73;17.87;;;14.70;99.90;;;;;;4989174;28;20484;-51
2022/11/15 12:00:21;;;;;;;39.60;26.60;;;14.90;99.90;;;;;;4987149;28;20456;-50
2022/11/15 12:02:59;;;;;;;27.77;18.57;;;14.90;99.90;;;;;;4981293;28;20461;-51
2022/11/15 12:05:31;;;;;;;38.30;22.90;;;15.90;99.20;;;;;;4984168;28;20464;-51
2022/11/15 12:08:21;;;;;;;26.23;17.27;;;16.80;61.30;;;;;;4982453;28;20468;-50
2022/11/15 12:10:54;;;;;;;24.80;16.13;;;18.20;90.00;;;;;;4989901;28;20901;-50
2022/11/15 12:13:25;;;;;;;24.30;16.20;;;19.10;99.90;;;;;;4990056;28;20526;-51
2022/11/15 12:15:57;;;;;;;20.90;15.83;;;18.80;99.90;;;;;;4987133;28;20484;-51
2022/11/15 12:18:24;;;;;;;30.67;17.17;;;18.00;99.90;;;;;;4986717;28;21055;-50
2022/11/15 12:20:56;;;;;;;25.33;17.87;;;17.90;99.90;;;;;;4989038;28;20966;-50
2022/11/15 12:23:28;;;;;;;22.40;17.60;;;17.30;99.90;;;;;;4987306;28;20465;-51
2022/11/15 12:26:00;;;;;;;24.73;18.00;;;16.90;92.60;;;;;;4986997;28;20503;-50
2022/11/15 12:28:36;;;;;;;26.00;15.93;;;15.80;67.00;;;;;;4988185;28;20468;-50
2022/11/15 12:31:10;;;;;;;20.93;17.13;;;15.10;28.50;;;;;;4985984;28;20476;-50
2022/11/15 12:33:39;;;;;;;20.30;17.07;;;14.60;99.90;;;;;;4989683;28;20460;-50
2022/11/15 12:36:11;;;;;;;27.80;16.13;;;14.60;99.90;;;;;;4988495;28;20599;-51
2022/11/15 12:38:54;;;;;;;27.53;17.77;;;14.20;99.90;;;;;;4988585;28;20495;-50
2022/11/15 12:41:22;;;;;;;26.57;16.80;;;14.10;99.90;;;;;;4985972;28;21013;-50
2022/11/15 12:43:50;;;;;;;28.40;18.90;;;13.90;99.90;;;;;;4984337;28;20480;-50
2022/11/15 12:46:36;;;;;;;25.17;18.30;;;14.10;99.90;;;;;;4982587;28;20997;-50
2022/11/15 12:49:09;;;;;;;26.50;17.60;;;13.80;99.90;;;;;;4984430;28;20539;-50
2022/11/15 12:52:08;;;;;;;24.17;17.30;;;13.90;99.90;;;;;;4979862;28;20546;-50
2022/11/15 12:54:54;;;;;;;25.40;18.20;;;14.50;99.90;;;;;;4983569;28;20515;-50
2022/11/15 12:57:30;;;;;;;23.87;17.60;;;14.60;99.90;;;;;;4943997;28;20566;-51
2022/11/15 12:59:59;;;;;;;23.27;18.43;;;14.40;99.90;;;;;;4983766;28;20542;-51